sensor_id;sensor_type;location;lat;lon;timestamp;P1;durP1;ratioP1;P2;durP2;ratioP2
4290;SDS011;2159;50.906;7.152;2022-10-16T00:00:04;6.77;;;2.83;;
4290;SDS011;2159;50.906;7.152;2022-10-16T00:02:31;2.90;;;2.70;;
4290;SDS011;2159;50.906;7.152;2022-10-16T00:04:59;9.67;;;2.87;;
4290;SDS011;2159;50.906;7.152;2022-10-16T00:07:26;2.80;;;2.60;;
4290;SDS011;2159;50.906;7.152;2022-10-16T00:09:55;3.50;;;2.80;;
4290;SDS011;2159;50.906;7.152;2022-10-16T00:12:23;6.10;;;2.80;;
4290;SDS011;2159;50.906;7.152;2022-10-16T00:14:50;7.43;;;2.70;;
4290;SDS011;2159;50.906;7.152;2022-10-16T00:17:18;8.10;;;2.80;;
4290;SDS011;2159;50.906;7.152;2022-10-16T00:19:45;8.53;;;2.70;;
4290;SDS011;2159;50.906;7.152;2022-10-16T00:22:12;9.40;;;2.70;;
4290;SDS011;2159;50.906;7.152;2022-10-16T00:24:40;6.77;;;3.20;;
4290;SDS011;2159;50.906;7.152;2022-10-16T00:27:09;5.30;;;2.60;;
4290;SDS011;2159;50.906;7.152;2022-10-16T00:29:36;11.43;;;2.83;;
4290;SDS011;2159;50.906;7.152;2022-10-16T00:32:03;7.00;;;2.63;;
4290;SDS011;2159;50.906;7.152;2022-10-16T00:34:31;3.97;;;2.30;;
4290;SDS011;2159;50.906;7.152;2022-10-16T00:36:58;6.60;;;2.60;;
4290;SDS011;2159;50.906;7.152;2022-10-16T00:39:26;3.33;;;2.20;;
4290;SDS011;2159;50.906;7.152;2022-10-16T00:41:53;8.97;;;2.70;;
4290;SDS011;2159;50.906;7.152;2022-10-16T00:47:09;7.83;;;2.67;;
4290;SDS011;2159;50.906;7.152;2022-10-16T00:49:36;3.63;;;2.43;;
4290;SDS011;2159;50.906;7.152;2022-10-16T00:52:04;5.57;;;2.60;;
4290;SDS011;2159;50.906;7.152;2022-10-16T00:54:32;4.93;;;2.30;;
4290;SDS011;2159;50.906;7.152;2022-10-16T00:57:02;5.50;;;2.57;;
4290;SDS011;2159;50.906;7.152;2022-10-16T00:59:32;8.03;;;2.90;;
4290;SDS011;2159;50.906;7.152;2022-10-16T01:02:00;6.27;;;2.50;;
4290;SDS011;2159;50.906;7.152;2022-10-16T01:04:30;12.07;;;2.80;;
4290;SDS011;2159;50.906;7.152;2022-10-16T01:07:01;5.27;;;2.97;;
4290;SDS011;2159;50.906;7.152;2022-10-16T01:09:33;8.17;;;2.60;;
4290;SDS011;2159;50.906;7.152;2022-10-16T01:12:05;10.90;;;2.80;;
4290;SDS011;2159;50.906;7.152;2022-10-16T01:14:36;6.27;;;2.70;;
4290;SDS011;2159;50.906;7.152;2022-10-16T01:17:06;3.73;;;2.43;;
4290;SDS011;2159;50.906;7.152;2022-10-16T01:19:44;3.77;;;2.10;;
4290;SDS011;2159;50.906;7.152;2022-10-16T01:22:14;6.23;;;2.30;;
4290;SDS011;2159;50.906;7.152;2022-10-16T01:24:43;2.33;;;2.00;;
4290;SDS011;2159;50.906;7.152;2022-10-16T01:27:18;3.33;;;2.37;;
4290;SDS011;2159;50.906;7.152;2022-10-16T01:29:49;6.67;;;2.17;;
4290;SDS011;2159;50.906;7.152;2022-10-16T01:32:22;4.57;;;2.30;;
4290;SDS011;2159;50.906;7.152;2022-10-16T01:34:50;2.30;;;2.10;;
4290;SDS011;2159;50.906;7.152;2022-10-16T01:37:21;6.57;;;2.60;;
4290;SDS011;2159;50.906;7.152;2022-10-16T01:39:49;7.17;;;2.23;;
4290;SDS011;2159;50.906;7.152;2022-10-16T01:42:20;3.43;;;2.13;;
4290;SDS011;2159;50.906;7.152;2022-10-16T01:44:48;4.20;;;2.17;;
4290;SDS011;2159;50.906;7.152;2022-10-16T01:47:16;6.40;;;2.37;;
4290;SDS011;2159;50.906;7.152;2022-10-16T01:49:45;3.47;;;1.90;;
4290;SDS011;2159;50.906;7.152;2022-10-16T01:52:13;2.80;;;1.93;;
4290;SDS011;2159;50.906;7.152;2022-10-16T01:54:43;2.43;;;2.10;;
4290;SDS011;2159;50.906;7.152;2022-10-16T01:57:12;5.00;;;2.40;;
4290;SDS011;2159;50.906;7.152;2022-10-16T01:59:42;2.80;;;1.87;;
4290;SDS011;2159;50.906;7.152;2022-10-16T02:02:11;2.77;;;2.10;;
4290;SDS011;2159;50.906;7.152;2022-10-16T02:04:40;2.30;;;2.17;;
4290;SDS011;2159;50.906;7.152;2022-10-16T02:07:09;7.27;;;1.90;;
4290;SDS011;2159;50.906;7.152;2022-10-16T02:09:37;4.47;;;2.03;;
4290;SDS011;2159;50.906;7.152;2022-10-16T02:12:06;1.90;;;1.80;;
4290;SDS011;2159;50.906;7.152;2022-10-16T02:14:35;5.90;;;1.97;;
4290;SDS011;2159;50.906;7.152;2022-10-16T02:17:11;3.10;;;2.30;;
4290;SDS011;2159;50.906;7.152;2022-10-16T02:19:38;5.33;;;2.10;;
4290;SDS011;2159;50.906;7.152;2022-10-16T02:22:07;2.03;;;1.70;;
4290;SDS011;2159;50.906;7.152;2022-10-16T02:24:37;2.73;;;2.00;;
4290;SDS011;2159;50.906;7.152;2022-10-16T02:27:06;6.27;;;2.30;;
4290;SDS011;2159;50.906;7.152;2022-10-16T02:29:36;8.57;;;2.20;;
4290;SDS011;2159;50.906;7.152;2022-10-16T02:32:06;9.90;;;2.57;;
4290;SDS011;2159;50.906;7.152;2022-10-16T02:34:36;6.10;;;2.30;;
4290;SDS011;2159;50.906;7.152;2022-10-16T02:37:04;3.27;;;2.67;;
4290;SDS011;2159;50.906;7.152;2022-10-16T02:39:33;4.60;;;2.07;;
4290;SDS011;2159;50.906;7.152;2022-10-16T02:42:00;3.53;;;1.97;;
4290;SDS011;2159;50.906;7.152;2022-10-16T02:44:28;4.67;;;2.30;;
4290;SDS011;2159;50.906;7.152;2022-10-16T02:46:56;2.27;;;2.07;;
4290;SDS011;2159;50.906;7.152;2022-10-16T02:49:23;9.73;;;2.80;;
4290;SDS011;2159;50.906;7.152;2022-10-16T02:51:52;2.03;;;1.93;;
4290;SDS011;2159;50.906;7.152;2022-10-16T02:54:19;3.67;;;2.23;;
4290;SDS011;2159;50.906;7.152;2022-10-16T02:56:47;5.83;;;2.23;;
4290;SDS011;2159;50.906;7.152;2022-10-16T02:59:14;5.57;;;1.93;;
4290;SDS011;2159;50.906;7.152;2022-10-16T03:01:41;2.00;;;1.90;;
4290;SDS011;2159;50.906;7.152;2022-10-16T03:04:09;12.30;;;1.80;;
4290;SDS011;2159;50.906;7.152;2022-10-16T03:06:36;5.13;;;2.43;;
4290;SDS011;2159;50.906;7.152;2022-10-16T03:09:05;4.73;;;2.10;;
4290;SDS011;2159;50.906;7.152;2022-10-16T03:11:32;8.30;;;2.20;;
4290;SDS011;2159;50.906;7.152;2022-10-16T03:14:00;2.33;;;1.90;;
4290;SDS011;2159;50.906;7.152;2022-10-16T03:16:27;3.87;;;2.20;;
4290;SDS011;2159;50.906;7.152;2022-10-16T03:18:55;4.90;;;2.20;;
4290;SDS011;2159;50.906;7.152;2022-10-16T03:21:22;3.37;;;2.17;;
4290;SDS011;2159;50.906;7.152;2022-10-16T03:23:50;5.60;;;2.70;;
4290;SDS011;2159;50.906;7.152;2022-10-16T03:26:18;9.53;;;2.40;;
4290;SDS011;2159;50.906;7.152;2022-10-16T03:28:46;4.60;;;2.13;;
4290;SDS011;2159;50.906;7.152;2022-10-16T03:31:13;2.30;;;2.07;;
4290;SDS011;2159;50.906;7.152;2022-10-16T03:33:41;2.37;;;1.93;;
4290;SDS011;2159;50.906;7.152;2022-10-16T03:36:08;4.17;;;2.13;;
4290;SDS011;2159;50.906;7.152;2022-10-16T03:38:35;4.17;;;2.30;;
4290;SDS011;2159;50.906;7.152;2022-10-16T03:41:03;2.13;;;2.00;;
4290;SDS011;2159;50.906;7.152;2022-10-16T03:43:32;2.23;;;2.00;;
4290;SDS011;2159;50.906;7.152;2022-10-16T03:45:59;8.40;;;2.37;;
4290;SDS011;2159;50.906;7.152;2022-10-16T03:48:28;4.30;;;2.40;;
4290;SDS011;2159;50.906;7.152;2022-10-16T03:50:56;5.13;;;2.40;;
4290;SDS011;2159;50.906;7.152;2022-10-16T03:53:23;6.10;;;1.90;;
4290;SDS011;2159;50.906;7.152;2022-10-16T03:55:50;5.20;;;2.37;;
4290;SDS011;2159;50.906;7.152;2022-10-16T03:58:18;2.63;;;2.23;;
4290;SDS011;2159;50.906;7.152;2022-10-16T04:00:47;2.50;;;2.30;;
4290;SDS011;2159;50.906;7.152;2022-10-16T04:03:15;2.67;;;2.23;;
4290;SDS011;2159;50.906;7.152;2022-10-16T04:05:43;2.30;;;2.10;;
4290;SDS011;2159;50.906;7.152;2022-10-16T04:08:10;7.17;;;1.97;;
4290;SDS011;2159;50.906;7.152;2022-10-16T04:10:38;11.13;;;2.37;;
4290;SDS011;2159;50.906;7.152;2022-10-16T04:13:05;4.93;;;1.97;;
4290;SDS011;2159;50.906;7.152;2022-10-16T04:15:33;4.73;;;2.03;;
4290;SDS011;2159;50.906;7.152;2022-10-16T04:18:02;2.30;;;1.87;;
4290;SDS011;2159;50.906;7.152;2022-10-16T04:20:29;3.03;;;2.20;;
4290;SDS011;2159;50.906;7.152;2022-10-16T04:22:57;3.53;;;2.00;;
4290;SDS011;2159;50.906;7.152;2022-10-16T04:25:24;6.03;;;2.00;;
4290;SDS011;2159;50.906;7.152;2022-10-16T04:27:52;4.57;;;1.83;;
4290;SDS011;2159;50.906;7.152;2022-10-16T04:30:19;7.00;;;2.07;;
4290;SDS011;2159;50.906;7.152;2022-10-16T04:32:47;3.77;;;2.37;;
4290;SDS011;2159;50.906;7.152;2022-10-16T04:35:16;3.33;;;1.97;;
4290;SDS011;2159;50.906;7.152;2022-10-16T04:37:44;3.10;;;2.20;;
4290;SDS011;2159;50.906;7.152;2022-10-16T04:40:12;5.70;;;2.10;;
4290;SDS011;2159;50.906;7.152;2022-10-16T04:42:39;3.43;;;1.90;;
4290;SDS011;2159;50.906;7.152;2022-10-16T04:45:07;2.30;;;2.20;;
4290;SDS011;2159;50.906;7.152;2022-10-16T04:47:40;2.07;;;1.90;;
4290;SDS011;2159;50.906;7.152;2022-10-16T04:50:07;2.37;;;2.17;;
4290;SDS011;2159;50.906;7.152;2022-10-16T04:52:36;2.90;;;2.20;;
4290;SDS011;2159;50.906;7.152;2022-10-16T04:55:04;2.17;;;1.97;;
4290;SDS011;2159;50.906;7.152;2022-10-16T04:57:31;4.10;;;1.97;;
4290;SDS011;2159;50.906;7.152;2022-10-16T04:59:59;5.93;;;2.10;;
4290;SDS011;2159;50.906;7.152;2022-10-16T05:02:27;6.93;;;2.30;;
4290;SDS011;2159;50.906;7.152;2022-10-16T05:04:54;2.17;;;2.07;;
4290;SDS011;2159;50.906;7.152;2022-10-16T05:07:23;10.20;;;2.30;;
4290;SDS011;2159;50.906;7.152;2022-10-16T05:09:52;2.80;;;2.10;;
4290;SDS011;2159;50.906;7.152;2022-10-16T05:12:19;2.10;;;1.90;;
4290;SDS011;2159;50.906;7.152;2022-10-16T05:14:47;7.20;;;2.10;;
4290;SDS011;2159;50.906;7.152;2022-10-16T05:17:14;2.70;;;1.93;;
4290;SDS011;2159;50.906;7.152;2022-10-16T05:19:42;2.30;;;2.00;;
4290;SDS011;2159;50.906;7.152;2022-10-16T05:22:09;3.83;;;1.87;;
4290;SDS011;2159;50.906;7.152;2022-10-16T05:24:36;2.50;;;1.70;;
4290;SDS011;2159;50.906;7.152;2022-10-16T05:27:05;2.50;;;2.30;;
4290;SDS011;2159;50.906;7.152;2022-10-16T05:29:33;2.10;;;2.00;;
4290;SDS011;2159;50.906;7.152;2022-10-16T05:32:01;2.00;;;1.80;;
4290;SDS011;2159;50.906;7.152;2022-10-16T05:34:28;3.00;;;1.90;;
4290;SDS011;2159;50.906;7.152;2022-10-16T05:36:56;2.60;;;2.03;;
4290;SDS011;2159;50.906;7.152;2022-10-16T05:39:23;4.20;;;2.20;;
4290;SDS011;2159;50.906;7.152;2022-10-16T05:41:51;5.97;;;1.90;;
4290;SDS011;2159;50.906;7.152;2022-10-16T05:44:19;5.10;;;2.03;;
4290;SDS011;2159;50.906;7.152;2022-10-16T05:46:47;2.10;;;2.00;;
4290;SDS011;2159;50.906;7.152;2022-10-16T05:49:15;4.60;;;2.10;;
4290;SDS011;2159;50.906;7.152;2022-10-16T05:51:42;1.93;;;1.83;;
4290;SDS011;2159;50.906;7.152;2022-10-16T05:54:10;2.10;;;2.00;;
4290;SDS011;2159;50.906;7.152;2022-10-16T05:56:37;3.53;;;1.90;;
4290;SDS011;2159;50.906;7.152;2022-10-16T05:59:05;4.20;;;2.00;;
4290;SDS011;2159;50.906;7.152;2022-10-16T06:01:34;9.17;;;4.93;;
4290;SDS011;2159;50.906;7.152;2022-10-16T06:04:02;10.80;;;6.00;;
4290;SDS011;2159;50.906;7.152;2022-10-16T06:06:29;7.43;;;3.70;;
4290;SDS011;2159;50.906;7.152;2022-10-16T06:08:57;2.63;;;2.37;;
4290;SDS011;2159;50.906;7.152;2022-10-16T06:11:26;2.30;;;2.20;;
4290;SDS011;2159;50.906;7.152;2022-10-16T06:13:55;8.30;;;2.20;;
4290;SDS011;2159;50.906;7.152;2022-10-16T06:16:23;3.97;;;1.87;;
4290;SDS011;2159;50.906;7.152;2022-10-16T06:18:52;2.60;;;1.90;;
4290;SDS011;2159;50.906;7.152;2022-10-16T06:21:21;5.90;;;1.83;;
4290;SDS011;2159;50.906;7.152;2022-10-16T06:23:50;2.20;;;1.70;;
4290;SDS011;2159;50.906;7.152;2022-10-16T06:26:19;4.00;;;1.97;;
4290;SDS011;2159;50.906;7.152;2022-10-16T06:28:47;7.00;;;2.50;;
4290;SDS011;2159;50.906;7.152;2022-10-16T06:31:15;2.30;;;2.20;;
4290;SDS011;2159;50.906;7.152;2022-10-16T06:33:42;4.70;;;2.00;;
4290;SDS011;2159;50.906;7.152;2022-10-16T06:36:13;2.93;;;1.97;;
4290;SDS011;2159;50.906;7.152;2022-10-16T06:38:41;4.73;;;2.33;;
4290;SDS011;2159;50.906;7.152;2022-10-16T06:41:09;6.37;;;2.40;;
4290;SDS011;2159;50.906;7.152;2022-10-16T06:43:36;7.50;;;3.90;;
4290;SDS011;2159;50.906;7.152;2022-10-16T06:46:04;8.27;;;7.07;;
4290;SDS011;2159;50.906;7.152;2022-10-16T06:48:34;15.93;;;10.17;;
4290;SDS011;2159;50.906;7.152;2022-10-16T06:51:02;6.67;;;5.50;;
4290;SDS011;2159;50.906;7.152;2022-10-16T06:53:37;6.33;;;3.57;;
4290;SDS011;2159;50.906;7.152;2022-10-16T06:56:26;3.63;;;2.40;;
4290;SDS011;2159;50.906;7.152;2022-10-16T06:58:53;2.60;;;2.00;;
4290;SDS011;2159;50.906;7.152;2022-10-16T07:01:21;3.27;;;1.80;;
4290;SDS011;2159;50.906;7.152;2022-10-16T07:03:49;3.80;;;2.20;;
4290;SDS011;2159;50.906;7.152;2022-10-16T07:06:17;3.90;;;2.27;;
4290;SDS011;2159;50.906;7.152;2022-10-16T07:08:46;2.20;;;2.10;;
4290;SDS011;2159;50.906;7.152;2022-10-16T07:11:14;2.00;;;1.83;;
4290;SDS011;2159;50.906;7.152;2022-10-16T07:13:42;2.30;;;2.20;;
4290;SDS011;2159;50.906;7.152;2022-10-16T07:16:17;3.43;;;2.30;;
4290;SDS011;2159;50.906;7.152;2022-10-16T07:18:45;3.87;;;2.23;;
4290;SDS011;2159;50.906;7.152;2022-10-16T07:21:15;4.10;;;2.40;;
4290;SDS011;2159;50.906;7.152;2022-10-16T07:23:43;2.30;;;2.03;;
4290;SDS011;2159;50.906;7.152;2022-10-16T07:26:12;2.63;;;2.37;;
4290;SDS011;2159;50.906;7.152;2022-10-16T07:28:39;3.20;;;2.90;;
4290;SDS011;2159;50.906;7.152;2022-10-16T07:31:07;4.53;;;3.07;;
4290;SDS011;2159;50.906;7.152;2022-10-16T07:33:37;4.07;;;2.70;;
4290;SDS011;2159;50.906;7.152;2022-10-16T07:36:06;7.83;;;2.90;;
4290;SDS011;2159;50.906;7.152;2022-10-16T07:38:38;2.90;;;2.70;;
4290;SDS011;2159;50.906;7.152;2022-10-16T07:41:07;2.97;;;2.70;;
4290;SDS011;2159;50.906;7.152;2022-10-16T07:43:36;3.10;;;2.90;;
4290;SDS011;2159;50.906;7.152;2022-10-16T07:46:03;4.67;;;3.70;;
4290;SDS011;2159;50.906;7.152;2022-10-16T07:48:32;3.63;;;3.10;;
4290;SDS011;2159;50.906;7.152;2022-10-16T07:51:01;5.40;;;3.50;;
4290;SDS011;2159;50.906;7.152;2022-10-16T07:53:28;4.00;;;3.70;;
4290;SDS011;2159;50.906;7.152;2022-10-16T07:55:59;4.80;;;3.50;;
4290;SDS011;2159;50.906;7.152;2022-10-16T07:58:27;5.50;;;3.43;;
4290;SDS011;2159;50.906;7.152;2022-10-16T08:00:56;3.73;;;3.40;;
4290;SDS011;2159;50.906;7.152;2022-10-16T08:03:24;3.63;;;3.40;;
4290;SDS011;2159;50.906;7.152;2022-10-16T08:05:53;3.90;;;3.60;;
4290;SDS011;2159;50.906;7.152;2022-10-16T08:08:20;3.80;;;3.50;;
4290;SDS011;2159;50.906;7.152;2022-10-16T08:10:48;4.47;;;3.50;;
4290;SDS011;2159;50.906;7.152;2022-10-16T08:13:15;4.33;;;3.40;;
4290;SDS011;2159;50.906;7.152;2022-10-16T08:15:43;7.93;;;3.80;;
4290;SDS011;2159;50.906;7.152;2022-10-16T08:18:12;4.70;;;3.63;;
4290;SDS011;2159;50.906;7.152;2022-10-16T08:20:40;4.67;;;3.77;;
4290;SDS011;2159;50.906;7.152;2022-10-16T08:23:08;3.77;;;3.20;;
4290;SDS011;2159;50.906;7.152;2022-10-16T08:25:36;5.53;;;3.63;;
4290;SDS011;2159;50.906;7.152;2022-10-16T08:28:04;4.80;;;3.60;;
4290;SDS011;2159;50.906;7.152;2022-10-16T08:30:32;3.80;;;2.70;;
4290;SDS011;2159;50.906;7.152;2022-10-16T08:32:59;3.10;;;3.00;;
4290;SDS011;2159;50.906;7.152;2022-10-16T08:35:28;5.40;;;3.37;;
4290;SDS011;2159;50.906;7.152;2022-10-16T08:37:55;2.50;;;2.30;;
4290;SDS011;2159;50.906;7.152;2022-10-16T08:40:24;2.80;;;2.47;;
4290;SDS011;2159;50.906;7.152;2022-10-16T08:42:56;2.10;;;2.00;;
4290;SDS011;2159;50.906;7.152;2022-10-16T08:45:33;5.83;;;2.20;;
4290;SDS011;2159;50.906;7.152;2022-10-16T08:48:05;3.90;;;2.47;;
4290;SDS011;2159;50.906;7.152;2022-10-16T08:50:38;2.23;;;2.00;;
4290;SDS011;2159;50.906;7.152;2022-10-16T08:53:06;1.80;;;1.70;;
4290;SDS011;2159;50.906;7.152;2022-10-16T08:55:36;1.87;;;1.77;;
4290;SDS011;2159;50.906;7.152;2022-10-16T08:58:09;1.87;;;1.63;;
4290;SDS011;2159;50.906;7.152;2022-10-16T09:00:38;2.53;;;2.33;;
4290;SDS011;2159;50.906;7.152;2022-10-16T09:03:07;3.20;;;2.10;;
4290;SDS011;2159;50.906;7.152;2022-10-16T09:05:45;5.33;;;3.17;;
4290;SDS011;2159;50.906;7.152;2022-10-16T09:08:17;3.97;;;3.40;;
4290;SDS011;2159;50.906;7.152;2022-10-16T09:10:50;6.10;;;3.87;;
4290;SDS011;2159;50.906;7.152;2022-10-16T09:13:23;1.53;;;1.43;;
4290;SDS011;2159;50.906;7.152;2022-10-16T09:15:53;4.97;;;1.57;;
4290;SDS011;2159;50.906;7.152;2022-10-16T09:18:22;1.50;;;1.40;;
4290;SDS011;2159;50.906;7.152;2022-10-16T09:21:00;3.07;;;2.00;;
4290;SDS011;2159;50.906;7.152;2022-10-16T09:23:29;3.30;;;3.00;;
4290;SDS011;2159;50.906;7.152;2022-10-16T09:25:57;2.13;;;2.03;;
4290;SDS011;2159;50.906;7.152;2022-10-16T09:28:25;1.50;;;1.50;;
4290;SDS011;2159;50.906;7.152;2022-10-16T09:30:53;1.10;;;1.10;;
4290;SDS011;2159;50.906;7.152;2022-10-16T09:33:22;1.10;;;1.10;;
4290;SDS011;2159;50.906;7.152;2022-10-16T09:35:50;1.27;;;1.20;;
4290;SDS011;2159;50.906;7.152;2022-10-16T09:38:24;1.63;;;1.20;;
4290;SDS011;2159;50.906;7.152;2022-10-16T09:40:51;2.50;;;1.20;;
4290;SDS011;2159;50.906;7.152;2022-10-16T09:43:28;1.70;;;1.60;;
4290;SDS011;2159;50.906;7.152;2022-10-16T09:45:57;2.37;;;1.10;;
4290;SDS011;2159;50.906;7.152;2022-10-16T09:48:26;1.70;;;1.60;;
4290;SDS011;2159;50.906;7.152;2022-10-16T09:50:57;2.40;;;1.30;;
4290;SDS011;2159;50.906;7.152;2022-10-16T09:53:27;1.40;;;1.30;;
4290;SDS011;2159;50.906;7.152;2022-10-16T09:56:04;2.63;;;1.00;;
4290;SDS011;2159;50.906;7.152;2022-10-16T09:58:38;1.00;;;1.00;;
4290;SDS011;2159;50.906;7.152;2022-10-16T10:01:11;1.10;;;1.00;;
4290;SDS011;2159;50.906;7.152;2022-10-16T10:03:40;1.20;;;1.10;;
4290;SDS011;2159;50.906;7.152;2022-10-16T10:06:15;2.03;;;1.10;;
4290;SDS011;2159;50.906;7.152;2022-10-16T10:09:15;2.23;;;1.13;;
4290;SDS011;2159;50.906;7.152;2022-10-16T10:11:44;1.73;;;1.00;;
4290;SDS011;2159;50.906;7.152;2022-10-16T10:14:15;1.33;;;1.07;;
4290;SDS011;2159;50.906;7.152;2022-10-16T10:16:43;1.20;;;1.20;;
4290;SDS011;2159;50.906;7.152;2022-10-16T10:19:13;2.80;;;1.00;;
4290;SDS011;2159;50.906;7.152;2022-10-16T10:21:41;1.00;;;0.90;;
4290;SDS011;2159;50.906;7.152;2022-10-16T10:24:11;1.23;;;1.17;;
4290;SDS011;2159;50.906;7.152;2022-10-16T10:26:40;1.23;;;1.13;;
4290;SDS011;2159;50.906;7.152;2022-10-16T10:29:15;1.53;;;0.97;;
4290;SDS011;2159;50.906;7.152;2022-10-16T10:31:45;1.20;;;1.10;;
4290;SDS011;2159;50.906;7.152;2022-10-16T10:34:32;1.10;;;1.00;;
4290;SDS011;2159;50.906;7.152;2022-10-16T10:37:04;0.97;;;0.90;;
4290;SDS011;2159;50.906;7.152;2022-10-16T10:39:35;1.20;;;1.10;;
4290;SDS011;2159;50.906;7.152;2022-10-16T10:42:08;1.10;;;1.00;;
4290;SDS011;2159;50.906;7.152;2022-10-16T10:44:41;2.77;;;0.90;;
4290;SDS011;2159;50.906;7.152;2022-10-16T10:47:15;2.90;;;1.10;;
4290;SDS011;2159;50.906;7.152;2022-10-16T10:49:50;2.13;;;1.00;;
4290;SDS011;2159;50.906;7.152;2022-10-16T10:52:32;1.20;;;1.10;;
4290;SDS011;2159;50.906;7.152;2022-10-16T10:55:09;2.13;;;1.43;;
4290;SDS011;2159;50.906;7.152;2022-10-16T10:57:38;5.33;;;1.80;;
4290;SDS011;2159;50.906;7.152;2022-10-16T11:00:12;2.30;;;1.60;;
4290;SDS011;2159;50.906;7.152;2022-10-16T11:02:45;2.03;;;1.67;;
4290;SDS011;2159;50.906;7.152;2022-10-16T11:05:27;1.37;;;0.90;;
4290;SDS011;2159;50.906;7.152;2022-10-16T11:07:57;1.40;;;1.27;;
4290;SDS011;2159;50.906;7.152;2022-10-16T11:10:27;2.13;;;0.87;;
4290;SDS011;2159;50.906;7.152;2022-10-16T11:12:57;1.93;;;0.80;;
4290;SDS011;2159;50.906;7.152;2022-10-16T11:15:27;1.70;;;0.87;;
4290;SDS011;2159;50.906;7.152;2022-10-16T11:17:57;1.50;;;1.40;;
4290;SDS011;2159;50.906;7.152;2022-10-16T11:20:26;1.33;;;0.90;;
4290;SDS011;2159;50.906;7.152;2022-10-16T11:22:56;0.87;;;0.87;;
4290;SDS011;2159;50.906;7.152;2022-10-16T11:25:24;1.03;;;0.87;;
4290;SDS011;2159;50.906;7.152;2022-10-16T11:27:57;1.43;;;0.90;;
4290;SDS011;2159;50.906;7.152;2022-10-16T11:30:26;1.00;;;0.80;;
4290;SDS011;2159;50.906;7.152;2022-10-16T11:32:59;2.07;;;0.90;;
4290;SDS011;2159;50.906;7.152;2022-10-16T11:35:32;1.00;;;0.90;;
4290;SDS011;2159;50.906;7.152;2022-10-16T11:38:04;1.57;;;0.97;;
4290;SDS011;2159;50.906;7.152;2022-10-16T11:40:37;0.77;;;0.77;;
4290;SDS011;2159;50.906;7.152;2022-10-16T11:43:10;1.33;;;0.90;;
4290;SDS011;2159;50.906;7.152;2022-10-16T11:45:41;0.90;;;0.90;;
4290;SDS011;2159;50.906;7.152;2022-10-16T11:48:14;1.00;;;1.00;;
4290;SDS011;2159;50.906;7.152;2022-10-16T11:50:43;1.00;;;0.80;;
4290;SDS011;2159;50.906;7.152;2022-10-16T11:53:16;0.90;;;0.90;;
4290;SDS011;2159;50.906;7.152;2022-10-16T11:55:44;1.00;;;0.80;;
4290;SDS011;2159;50.906;7.152;2022-10-16T11:58:15;0.73;;;0.73;;
4290;SDS011;2159;50.906;7.152;2022-10-16T12:00:45;0.97;;;0.80;;
4290;SDS011;2159;50.906;7.152;2022-10-16T12:03:15;1.13;;;0.70;;
4290;SDS011;2159;50.906;7.152;2022-10-16T12:05:50;1.33;;;0.80;;
4290;SDS011;2159;50.906;7.152;2022-10-16T12:08:19;1.07;;;0.97;;
4290;SDS011;2159;50.906;7.152;2022-10-16T12:10:47;1.23;;;0.80;;
4290;SDS011;2159;50.906;7.152;2022-10-16T12:13:29;0.93;;;0.80;;
4290;SDS011;2159;50.906;7.152;2022-10-16T12:16:04;0.90;;;0.80;;
4290;SDS011;2159;50.906;7.152;2022-10-16T12:18:32;2.10;;;0.90;;
4290;SDS011;2159;50.906;7.152;2022-10-16T12:20:59;1.30;;;0.80;;
4290;SDS011;2159;50.906;7.152;2022-10-16T12:23:31;3.10;;;0.90;;
4290;SDS011;2159;50.906;7.152;2022-10-16T12:25:59;2.83;;;0.90;;
4290;SDS011;2159;50.906;7.152;2022-10-16T12:28:30;4.00;;;0.90;;
4290;SDS011;2159;50.906;7.152;2022-10-16T12:30:59;0.80;;;0.80;;
4290;SDS011;2159;50.906;7.152;2022-10-16T12:33:28;0.93;;;0.80;;
4290;SDS011;2159;50.906;7.152;2022-10-16T12:35:56;1.87;;;1.03;;
4290;SDS011;2159;50.906;7.152;2022-10-16T12:38:25;2.10;;;0.80;;
4290;SDS011;2159;50.906;7.152;2022-10-16T12:40:58;1.60;;;0.80;;
4290;SDS011;2159;50.906;7.152;2022-10-16T12:43:37;0.90;;;0.80;;
4290;SDS011;2159;50.906;7.152;2022-10-16T12:46:19;1.37;;;0.90;;
4290;SDS011;2159;50.906;7.152;2022-10-16T12:48:48;0.93;;;0.80;;
4290;SDS011;2159;50.906;7.152;2022-10-16T12:51:34;7.80;;;1.07;;
4290;SDS011;2159;50.906;7.152;2022-10-16T12:54:02;1.03;;;0.90;;
4290;SDS011;2159;50.906;7.152;2022-10-16T12:56:36;1.90;;;1.03;;
4290;SDS011;2159;50.906;7.152;2022-10-16T12:59:09;4.40;;;0.93;;
4290;SDS011;2159;50.906;7.152;2022-10-16T13:01:42;1.00;;;0.80;;
4290;SDS011;2159;50.906;7.152;2022-10-16T13:04:22;0.90;;;0.90;;
4290;SDS011;2159;50.906;7.152;2022-10-16T13:06:53;0.90;;;0.90;;
4290;SDS011;2159;50.906;7.152;2022-10-16T13:09:27;2.70;;;1.00;;
4290;SDS011;2159;50.906;7.152;2022-10-16T13:11:59;1.13;;;0.97;;
4290;SDS011;2159;50.906;7.152;2022-10-16T13:14:35;4.20;;;0.90;;
4290;SDS011;2159;50.906;7.152;2022-10-16T13:17:08;1.57;;;0.80;;
4290;SDS011;2159;50.906;7.152;2022-10-16T13:19:39;1.90;;;0.80;;
4290;SDS011;2159;50.906;7.152;2022-10-16T13:22:11;1.50;;;0.93;;
4290;SDS011;2159;50.906;7.152;2022-10-16T13:24:46;1.20;;;1.10;;
4290;SDS011;2159;50.906;7.152;2022-10-16T13:27:17;1.60;;;1.00;;
4290;SDS011;2159;50.906;7.152;2022-10-16T13:29:50;2.10;;;1.23;;
4290;SDS011;2159;50.906;7.152;2022-10-16T13:32:19;5.43;;;1.13;;
4290;SDS011;2159;50.906;7.152;2022-10-16T13:34:47;1.10;;;1.00;;
4290;SDS011;2159;50.906;7.152;2022-10-16T13:37:16;1.07;;;0.97;;
4290;SDS011;2159;50.906;7.152;2022-10-16T13:39:44;2.40;;;0.80;;
4290;SDS011;2159;50.906;7.152;2022-10-16T13:42:14;1.43;;;0.83;;
4290;SDS011;2159;50.906;7.152;2022-10-16T13:44:42;0.93;;;0.93;;
4290;SDS011;2159;50.906;7.152;2022-10-16T13:47:16;1.23;;;0.73;;
4290;SDS011;2159;50.906;7.152;2022-10-16T13:49:44;2.83;;;0.83;;
4290;SDS011;2159;50.906;7.152;2022-10-16T13:52:15;1.93;;;1.00;;
4290;SDS011;2159;50.906;7.152;2022-10-16T13:54:44;1.77;;;1.00;;
4290;SDS011;2159;50.906;7.152;2022-10-16T13:57:12;2.30;;;0.97;;
4290;SDS011;2159;50.906;7.152;2022-10-16T13:59:52;2.40;;;0.97;;
4290;SDS011;2159;50.906;7.152;2022-10-16T14:02:22;1.80;;;0.83;;
4290;SDS011;2159;50.906;7.152;2022-10-16T14:04:52;1.13;;;0.90;;
4290;SDS011;2159;50.906;7.152;2022-10-16T14:07:23;3.20;;;0.93;;
4290;SDS011;2159;50.906;7.152;2022-10-16T14:09:51;2.40;;;1.00;;
4290;SDS011;2159;50.906;7.152;2022-10-16T14:12:19;2.40;;;1.10;;
4290;SDS011;2159;50.906;7.152;2022-10-16T14:14:52;1.00;;;1.00;;
4290;SDS011;2159;50.906;7.152;2022-10-16T14:17:22;1.07;;;0.97;;
4290;SDS011;2159;50.906;7.152;2022-10-16T14:19:52;2.33;;;1.10;;
4290;SDS011;2159;50.906;7.152;2022-10-16T14:22:29;2.80;;;1.00;;
4290;SDS011;2159;50.906;7.152;2022-10-16T14:24:57;1.53;;;1.10;;
4290;SDS011;2159;50.906;7.152;2022-10-16T14:27:27;3.90;;;1.00;;
4290;SDS011;2159;50.906;7.152;2022-10-16T14:30:05;1.07;;;0.77;;
4290;SDS011;2159;50.906;7.152;2022-10-16T14:32:36;3.20;;;0.97;;
4290;SDS011;2159;50.906;7.152;2022-10-16T14:35:11;4.03;;;0.83;;
4290;SDS011;2159;50.906;7.152;2022-10-16T14:37:50;1.47;;;1.00;;
4290;SDS011;2159;50.906;7.152;2022-10-16T14:40:18;1.23;;;1.07;;
4290;SDS011;2159;50.906;7.152;2022-10-16T14:42:46;1.40;;;0.83;;
4290;SDS011;2159;50.906;7.152;2022-10-16T14:45:14;0.90;;;0.90;;
4290;SDS011;2159;50.906;7.152;2022-10-16T14:47:49;2.77;;;0.90;;
4290;SDS011;2159;50.906;7.152;2022-10-16T14:50:17;1.03;;;0.90;;
4290;SDS011;2159;50.906;7.152;2022-10-16T14:52:44;2.50;;;1.07;;
4290;SDS011;2159;50.906;7.152;2022-10-16T14:55:12;1.10;;;1.10;;
4290;SDS011;2159;50.906;7.152;2022-10-16T14:57:39;1.00;;;1.00;;
4290;SDS011;2159;50.906;7.152;2022-10-16T15:00:10;0.90;;;0.80;;
4290;SDS011;2159;50.906;7.152;2022-10-16T15:02:40;3.70;;;1.00;;
4290;SDS011;2159;50.906;7.152;2022-10-16T15:05:12;1.90;;;1.10;;
4290;SDS011;2159;50.906;7.152;2022-10-16T15:07:40;4.33;;;1.00;;
4290;SDS011;2159;50.906;7.152;2022-10-16T15:10:08;2.07;;;1.10;;
4290;SDS011;2159;50.906;7.152;2022-10-16T15:12:35;1.40;;;1.30;;
4290;SDS011;2159;50.906;7.152;2022-10-16T15:15:09;1.43;;;0.90;;
4290;SDS011;2159;50.906;7.152;2022-10-16T15:17:42;1.20;;;1.10;;
4290;SDS011;2159;50.906;7.152;2022-10-16T15:20:09;2.30;;;1.17;;
4290;SDS011;2159;50.906;7.152;2022-10-16T15:22:38;1.00;;;1.00;;
4290;SDS011;2159;50.906;7.152;2022-10-16T15:25:08;1.10;;;1.10;;
4290;SDS011;2159;50.906;7.152;2022-10-16T15:27:38;2.00;;;1.30;;
4290;SDS011;2159;50.906;7.152;2022-10-16T15:30:06;1.63;;;1.20;;
4290;SDS011;2159;50.906;7.152;2022-10-16T15:32:34;4.33;;;1.40;;